createdAt,value
2022-11-29T00:03:07.982Z,87.61
2022-11-29T00:07:00.609Z,87.64
2022-11-29T00:10:53.676Z,88.41
2022-11-29T00:14:46.626Z,88.07
2022-11-29T00:18:39.497Z,87.50
2022-11-29T00:22:32.057Z,88.18
2022-11-29T00:26:24.796Z,88.00
2022-11-29T00:30:18.385Z,88.60
2022-11-29T00:34:12.632Z,88.58
2022-11-29T00:38:05.176Z,88.16
2022-11-29T00:41:57.654Z,88.34
2022-11-29T00:45:50.344Z,88.15
2022-11-29T00:49:42.973Z,88.26
2022-11-29T00:53:36.366Z,88.66
2022-11-29T00:57:29.006Z,88.12
2022-11-29T01:01:21.820Z,88.40
2022-11-29T01:05:14.494Z,88.05
2022-11-29T01:09:07.085Z,87.32
2022-11-29T01:12:59.612Z,88.06
2022-11-29T01:16:52.289Z,88.23
2022-11-29T01:20:44.712Z,88.83
2022-11-29T01:24:37.270Z,88.93
2022-11-29T01:28:30.115Z,89.15
2022-11-29T01:32:23.334Z,88.25
2022-11-29T01:36:15.985Z,88.11
2022-11-29T01:40:08.746Z,88.05
2022-11-29T01:44:28.053Z,88.57
2022-11-29T01:48:24.380Z,88.14
2022-11-29T01:52:24.735Z,88.87
2022-11-29T01:56:17.423Z,88.42
2022-11-29T02:00:13.337Z,88.70
2022-11-29T02:04:06.495Z,88.86
2022-11-29T02:08:00.160Z,88.82
2022-11-29T02:12:22.576Z,88.83
2022-11-29T02:16:45.716Z,88.89
2022-11-29T02:21:18.260Z,88.90
2022-11-29T02:25:58.884Z,89.33
2022-11-29T02:30:16.321Z,89.08
2022-11-29T02:34:17.803Z,89.03
2022-11-29T02:38:41.528Z,89.10
2022-11-29T02:43:04.440Z,89.20
2022-11-29T02:47:08.029Z,89.07
2022-11-29T02:51:13.652Z,89.33
2022-11-29T02:55:44.247Z,88.88
2022-11-29T02:59:55.088Z,89.38
2022-11-29T03:03:52.376Z,89.15
2022-11-29T03:07:49.515Z,89.05
2022-11-29T03:12:01.479Z,88.67
2022-11-29T03:16:07.932Z,88.93
2022-11-29T03:20:21.712Z,89.12
2022-11-29T03:24:22.944Z,88.82
2022-11-29T03:28:23.907Z,88.68
2022-11-29T03:32:27.274Z,89.20
2022-11-29T03:36:37.262Z,88.58
2022-11-29T03:40:48.144Z,89.00
2022-11-29T03:44:50.582Z,88.72
2022-11-29T03:48:50.045Z,88.87
2022-11-29T03:52:53.840Z,89.05
2022-11-29T03:56:46.732Z,88.18
2022-11-29T04:01:18.797Z,87.96
2022-11-29T04:05:17.929Z,88.56
2022-11-29T04:09:24.404Z,88.95
2022-11-29T04:14:07.806Z,88.72
2022-11-29T04:18:26.034Z,88.92
2022-11-29T04:22:54.194Z,88.72
2022-11-29T04:26:52.303Z,87.47
2022-11-29T04:31:25.397Z,86.95
2022-11-29T04:35:33.137Z,86.45
2022-11-29T04:39:37.704Z,86.89
2022-11-29T04:44:17.861Z,86.86
2022-11-29T04:48:33.014Z,87.48
2022-11-29T04:52:28.297Z,87.78
2022-11-29T04:56:36.745Z,87.99
2022-11-29T05:00:35.297Z,87.62
2022-11-29T05:04:36.802Z,87.22
2022-11-29T05:08:41.281Z,87.22
2022-11-29T05:12:52.433Z,87.07
2022-11-29T05:16:48.320Z,87.64
2022-11-29T05:20:53.960Z,87.78
2022-11-29T05:24:55.679Z,88.20
2022-11-29T05:29:05.409Z,88.35
2022-11-29T05:33:24.198Z,88.25
2022-11-29T05:37:33.812Z,89.16
2022-11-29T05:41:56.901Z,89.09
2022-11-29T05:45:57.363Z,88.85
2022-11-29T05:50:16.350Z,88.58
2022-11-29T05:54:41.032Z,88.44
2022-11-29T05:58:45.710Z,88.29
2022-11-29T06:03:03.807Z,87.89
2022-11-29T06:07:18.095Z,88.26
2022-11-29T06:11:33.132Z,88.60
2022-11-29T06:15:53.340Z,88.63
2022-11-29T06:20:26.559Z,88.88
2022-11-29T06:24:25.870Z,89.31
2022-11-29T06:28:30.855Z,88.78
2022-11-29T06:32:37.703Z,88.46
2022-11-29T06:36:43.188Z,88.71
2022-11-29T06:40:35.911Z,89.08
2022-11-29T06:44:28.857Z,89.16
2022-11-29T06:48:27.761Z,88.05
2022-11-29T06:52:43.970Z,88.81
2022-11-29T06:57:08.497Z,88.09
2022-11-29T07:01:15.195Z,87.74
2022-11-29T07:05:22.778Z,87.60
2022-11-29T07:09:20.400Z,87.57
2022-11-29T07:13:14.016Z,88.02
2022-11-29T07:17:12.434Z,87.46
2022-11-29T07:21:16.011Z,87.39
2022-11-29T07:25:28.817Z,86.83
2022-11-29T07:29:46.985Z,86.23
2022-11-29T07:33:48.490Z,86.37
2022-11-29T07:37:57.867Z,85.76
2022-11-29T07:41:59.458Z,86.88
2022-11-29T07:45:52.187Z,86.48
2022-11-29T07:49:44.965Z,86.03
2022-11-29T07:53:42.437Z,86.83
2022-11-29T07:57:36.817Z,86.78
2022-11-29T08:01:29.599Z,86.25
2022-11-29T08:05:23.389Z,86.10
2022-11-29T08:09:16.132Z,86.15
2022-11-29T08:13:09.433Z,86.65
2022-11-29T08:17:01.821Z,86.80
2022-11-29T08:20:54.430Z,86.29
2022-11-29T08:24:47.581Z,86.10
2022-11-29T08:28:40.525Z,85.56
2022-11-29T08:32:34.399Z,85.43
2022-11-29T08:36:27.073Z,85.00
2022-11-29T08:40:19.885Z,85.49
2022-11-29T08:44:12.453Z,85.75
2022-11-29T08:48:05.659Z,84.81
2022-11-29T08:52:16.905Z,85.15
2022-11-29T08:56:59.751Z,85.16
2022-11-29T09:00:24.682Z,84.75
2022-11-29T09:04:17.849Z,85.27
2022-11-29T09:08:10.455Z,85.55
2022-11-29T09:12:03.271Z,85.44
2022-11-29T09:15:55.782Z,85.48
2022-11-29T09:19:48.318Z,85.37
2022-11-29T09:23:43.186Z,86.18
2022-11-29T09:27:35.618Z,85.89
2022-11-29T09:31:29.965Z,85.82
2022-11-29T09:35:22.421Z,85.63
2022-11-29T09:39:14.970Z,85.88
2022-11-29T09:43:20.328Z,85.95
2022-11-29T09:47:50.533Z,85.71
2022-11-29T09:52:16.129Z,85.64
2022-11-29T09:56:23.707Z,85.76
2022-11-29T10:00:20.312Z,85.70
2022-11-29T10:04:18.570Z,85.45
2022-11-29T10:08:33.998Z,84.88
2022-11-29T10:12:52.862Z,84.95
2022-11-29T10:16:57.618Z,84.64
2022-11-29T10:20:53.953Z,84.54
2022-11-29T10:24:51.932Z,84.71
2022-11-29T10:28:47.776Z,84.96
2022-11-29T10:32:41.064Z,85.33
2022-11-29T10:36:41.043Z,84.83
2022-11-29T10:40:36.422Z,84.22
2022-11-29T10:44:32.104Z,84.46
2022-11-29T10:48:31.978Z,84.40
2022-11-29T10:52:24.841Z,83.98
2022-11-29T10:56:24.303Z,83.83
2022-11-29T11:00:17.185Z,83.32
2022-11-29T11:04:17.211Z,82.80
2022-11-29T11:08:18.089Z,82.26
2022-11-29T11:12:17.139Z,82.28
2022-11-29T11:16:20.741Z,81.78
2022-11-29T11:20:22.861Z,81.29
2022-11-29T11:24:25.138Z,81.24
2022-11-29T11:28:27.344Z,80.60
2022-11-29T11:32:20.382Z,80.50
2022-11-29T11:36:24.085Z,80.23
2022-11-29T11:40:29.447Z,80.22
2022-11-29T11:44:49.968Z,79.25
2022-11-29T11:48:42.740Z,80.04
2022-11-29T11:52:50.650Z,79.85
2022-11-29T11:56:43.673Z,79.50
2022-11-29T12:01:09.405Z,80.45
2022-11-29T12:05:05.119Z,80.58
2022-11-29T12:09:06.568Z,79.45
2022-11-29T12:13:00.974Z,80.05
2022-11-29T12:17:01.923Z,79.91
2022-11-29T12:20:58.589Z,80.43
2022-11-29T12:24:59.346Z,81.08
2022-11-29T12:28:52.936Z,80.90
2022-11-29T12:33:04.653Z,81.33
2022-11-29T12:37:20.648Z,79.24
2022-11-29T12:41:13.591Z,78.55
2022-11-29T12:45:30.268Z,79.14
2022-11-29T12:49:22.915Z,78.84
2022-11-29T12:53:40.016Z,78.92
2022-11-29T12:58:00.694Z,79.47
2022-11-29T13:02:23.646Z,79.38
2022-11-29T13:06:40.901Z,78.96
2022-11-29T13:10:55.215Z,78.79
2022-11-29T13:15:09.731Z,78.91
2022-11-29T13:19:29.858Z,79.05
2022-11-29T13:23:45.707Z,79.14
2022-11-29T13:28:02.038Z,79.03
2022-11-29T13:31:54.998Z,78.33
2022-11-29T13:35:56.581Z,78.19
2022-11-29T13:39:49.283Z,78.47
2022-11-29T13:43:45.549Z,78.71
2022-11-29T13:47:56.001Z,78.84
2022-11-29T13:51:49.581Z,78.95
2022-11-29T13:56:25.128Z,79.41
2022-11-29T14:00:44.788Z,79.37
2022-11-29T14:04:39.621Z,80.12
2022-11-29T14:08:55.140Z,80.18
2022-11-29T14:12:56.885Z,80.78
2022-11-29T14:16:52.490Z,80.64
2022-11-29T14:20:54.996Z,80.96
2022-11-29T14:25:08.175Z,80.73
2022-11-29T14:29:47.312Z,79.89
2022-11-29T14:33:58.407Z,80.80
2022-11-29T14:37:55.842Z,80.36
2022-11-29T14:42:08.126Z,81.37
2022-11-29T14:46:16.065Z,81.47
2022-11-29T14:50:47.747Z,81.13
2022-11-29T14:55:24.488Z,81.74
2022-11-29T14:59:46.275Z,81.83
2022-11-29T15:03:49.794Z,82.27
2022-11-29T15:08:20.797Z,82.29
2022-11-29T15:12:18.752Z,83.21
2022-11-29T15:16:36.955Z,83.09
2022-11-29T15:20:48.461Z,83.12
2022-11-29T15:25:01.419Z,83.23
2022-11-29T15:28:53.932Z,83.21
2022-11-29T15:32:46.757Z,83.71
2022-11-29T15:36:43.572Z,83.89
2022-11-29T15:40:37.351Z,83.95
2022-11-29T15:44:32.984Z,84.25
2022-11-29T15:48:26.800Z,84.29
2022-11-29T15:52:30.831Z,84.24
2022-11-29T15:56:42.726Z,84.20
2022-11-29T16:00:35.808Z,83.89
2022-11-29T16:04:29.579Z,83.49
2022-11-29T16:08:22.784Z,83.82
2022-11-29T16:12:17.972Z,83.80
2022-11-29T16:16:20.946Z,84.19
2022-11-29T16:20:13.886Z,84.52
2022-11-29T16:24:23.488Z,84.75
2022-11-29T16:28:16.588Z,85.00
2022-11-29T16:32:36.965Z,84.90
2022-11-29T16:36:29.851Z,85.56
2022-11-29T16:40:27.170Z,85.29
2022-11-29T16:44:41.888Z,85.36
2022-11-29T16:48:38.939Z,85.96
2022-11-29T16:52:33.686Z,85.69
2022-11-29T16:56:29.233Z,85.67
2022-11-29T17:00:24.905Z,85.42
2022-11-29T17:04:23.815Z,85.68
2022-11-29T17:08:17.761Z,85.82
2022-11-29T17:12:13.926Z,85.91
2022-11-29T17:16:12.921Z,85.45
2022-11-29T17:20:07.511Z,84.82
2022-11-29T17:24:00.074Z,84.84
2022-11-29T17:27:52.409Z,85.48
2022-11-29T17:31:46.237Z,85.45
2022-11-29T17:35:39.002Z,85.41
2022-11-29T17:39:32.403Z,85.51
2022-11-29T17:43:25.481Z,85.82
2022-11-29T17:47:18.424Z,86.30
2022-11-29T17:51:36.047Z,86.30
2022-11-29T17:55:28.253Z,85.99
2022-11-29T17:59:22.759Z,86.41
2022-11-29T18:03:15.805Z,86.41
2022-11-29T18:07:08.859Z,86.51
2022-11-29T18:11:11.092Z,86.63
2022-11-29T18:15:04.152Z,86.40
2022-11-29T18:18:59.056Z,86.67
2022-11-29T18:22:53.852Z,86.79
2022-11-29T18:26:47.367Z,86.86
2022-11-29T18:30:40.612Z,86.63
2022-11-29T18:34:33.639Z,86.92
2022-11-29T18:38:26.864Z,87.75
2022-11-29T18:42:19.526Z,87.53
2022-11-29T18:46:15.863Z,87.75
2022-11-29T18:50:09.448Z,87.85
2022-11-29T18:54:06.464Z,87.71
2022-11-29T18:57:59.525Z,88.08
2022-11-29T19:01:53.771Z,88.28
2022-11-29T19:05:52.227Z,88.30
2022-11-29T19:09:46.598Z,87.96
2022-11-29T19:13:41.664Z,88.12
2022-11-29T19:17:38.804Z,88.22
2022-11-29T19:21:34.762Z,88.45
2022-11-29T19:25:28.263Z,88.34
2022-11-29T19:29:22.055Z,88.45
2022-11-29T19:33:15.187Z,88.05
2022-11-29T19:37:09.915Z,88.74
2022-11-29T19:41:10.360Z,88.79
2022-11-29T19:45:17.023Z,88.69
2022-11-29T19:49:12.768Z,88.76
2022-11-29T19:53:05.491Z,88.55
2022-11-29T19:56:58.824Z,87.68
2022-11-29T20:00:51.357Z,87.94
2022-11-29T20:04:47.034Z,88.42
2022-11-29T20:08:41.055Z,88.60
2022-11-29T20:12:34.927Z,88.76
2022-11-29T20:16:29.266Z,88.69
2022-11-29T20:20:22.203Z,88.39
2022-11-29T20:24:16.624Z,88.92
2022-11-29T20:28:12.699Z,88.89
2022-11-29T20:32:05.565Z,88.60
2022-11-29T20:36:12.112Z,88.84
2022-11-29T20:40:17.184Z,88.96
2022-11-29T20:44:13.771Z,89.07
2022-11-29T20:48:20.549Z,89.24
2022-11-29T20:52:51.128Z,88.39
2022-11-29T20:56:44.273Z,88.41
2022-11-29T21:00:37.506Z,87.98
2022-11-29T21:04:30.540Z,88.57
2022-11-29T21:08:26.032Z,88.73
2022-11-29T21:12:18.842Z,88.56
2022-11-29T21:16:12.612Z,89.02
2022-11-29T21:20:06.105Z,89.03
2022-11-29T21:24:09.193Z,89.15
2022-11-29T21:28:02.502Z,89.23
2022-11-29T21:31:55.417Z,89.23
2022-11-29T21:35:53.473Z,89.17
2022-11-29T21:39:47.828Z,88.96
2022-11-29T21:44:05.626Z,88.89
2022-11-29T21:47:53.680Z,88.52
2022-11-29T21:51:46.393Z,88.48
2022-11-29T21:55:38.766Z,88.14
2022-11-29T21:59:31.404Z,88.47
2022-11-29T22:03:24.040Z,88.85
2022-11-29T22:07:16.829Z,88.50
2022-11-29T22:11:15.422Z,88.61
2022-11-29T22:15:08.641Z,88.91
2022-11-29T22:19:01.284Z,88.72
2022-11-29T22:22:58.548Z,88.53
2022-11-29T22:26:52.745Z,88.58
2022-11-29T22:30:45.329Z,88.39
2022-11-29T22:34:37.977Z,88.22
2022-11-29T22:38:30.713Z,88.17
2022-11-29T22:42:23.214Z,88.27
2022-11-29T22:46:20.709Z,88.24
2022-11-29T22:50:13.232Z,88.03
2022-11-29T22:54:08.029Z,87.99
2022-11-29T22:58:00.910Z,88.18
2022-11-29T23:01:53.951Z,88.07
2022-11-29T23:05:46.544Z,88.33
2022-11-29T23:09:39.342Z,88.60
2022-11-29T23:13:34.642Z,88.27
2022-11-29T23:17:27.455Z,88.11
2022-11-29T23:21:35.372Z,88.33
2022-11-29T23:25:27.848Z,88.49
2022-11-29T23:29:20.392Z,88.44
2022-11-29T23:33:13.009Z,88.03
2022-11-29T23:37:05.604Z,87.51
2022-11-29T23:40:58.309Z,87.33
2022-11-29T23:44:50.901Z,87.02
2022-11-29T23:48:44.180Z,86.79
2022-11-29T23:52:37.287Z,86.59
2022-11-29T23:56:35.434Z,86.23
